Time;durP1;ratioP1;P1;durP2;ratioP2;P2;SDS_P1;SDS_P2;PMS_P1;PMS_P2;Temp;Humidity;BMP_temperature;BMP_pressure;BME280_temperature;BME280_humidity;BME280_pressure;Samples;Min_cycle;Max_cycle;Signal;HPM_P1;HPM_P2
2022/10/28 03:18:50;;;;;;;23.70;16.25;;;13.60;99.90;;;;;;5033024;28;20140;-53
2022/10/28 03:21:16;;;;;;;24.70;17.50;;;13.60;99.90;;;;;;5028593;28;20124;-50
2022/10/28 03:23:41;;;;;;;25.17;16.35;;;13.70;99.90;;;;;;5031495;28;20021;-49
2022/10/28 03:26:07;;;;;;;21.65;16.30;;;13.70;99.90;;;;;;5026461;28;20045;-52
2022/10/28 03:28:33;;;;;;;22.27;16.95;;;13.70;99.90;;;;;;5021357;28;20111;-49
2022/10/28 03:30:58;;;;;;;29.33;16.50;;;13.70;99.90;;;;;;5029039;28;20101;-50
2022/10/28 03:33:24;;;;;;;23.23;15.20;;;13.70;99.90;;;;;;5030128;28;20069;-52
2022/10/28 03:35:50;;;;;;;21.67;17.15;;;13.60;99.90;;;;;;5026564;28;20101;-49
2022/10/28 03:38:15;;;;;;;22.80;16.80;;;13.70;99.90;;;;;;5011889;28;20460;-51
2022/10/28 03:40:41;;;;;;;23.27;17.75;;;13.50;99.90;;;;;;5028531;28;20034;-52
2022/10/28 03:43:07;;;;;;;26.80;16.35;;;13.50;99.90;;;;;;5032527;28;20032;-54
2022/10/28 03:45:33;;;;;;;23.00;16.45;;;13.40;99.90;;;;;;5024289;28;20122;-48
2022/10/28 03:47:59;;;;;;;23.02;16.73;;;13.40;99.90;;;;;;5029486;28;20104;-50
2022/10/28 03:50:24;;;;;;;23.50;16.25;;;13.40;99.90;;;;;;5029711;28;20123;-50
2022/10/28 03:52:50;;;;;;;18.38;16.42;;;13.50;99.90;;;;;;5026227;28;20034;-54
2022/10/28 03:55:16;;;;;;;26.25;21.60;;;13.50;99.90;;;;;;5026601;28;20030;-51
2022/10/28 03:57:42;;;;;;;20.45;15.38;;;13.50;99.90;;;;;;5028305;28;20112;-52
2022/10/28 04:00:08;;;;;;;19.00;15.18;;;13.50;99.90;;;;;;5031018;28;20486;-52
2022/10/28 04:02:34;;;;;;;21.42;13.45;;;13.50;99.90;;;;;;5030267;28;20053;-51
2022/10/28 04:05:00;;;;;;;20.08;13.70;;;13.30;99.90;;;;;;5021197;28;20108;-52
2022/10/28 04:07:25;;;;;;;21.58;14.63;;;13.40;99.90;;;;;;5026947;28;20033;-50
2022/10/28 04:09:51;;;;;;;27.08;14.35;;;13.40;99.90;;;;;;5029012;28;20483;-49
2022/10/28 04:12:17;;;;;;;20.98;13.80;;;13.40;99.90;;;;;;5026278;28;20037;-51
2022/10/28 04:14:43;;;;;;;19.35;13.75;;;13.40;99.90;;;;;;5024575;28;20432;-49
2022/10/28 04:17:09;;;;;;;19.70;13.98;;;13.40;99.90;;;;;;5011454;28;20057;-50
2022/10/28 04:19:35;;;;;;;20.50;14.15;;;13.40;99.90;;;;;;5027499;28;20136;-53
2022/10/28 04:22:00;;;;;;;19.48;14.00;;;13.30;99.90;;;;;;5031409;28;20045;-53
2022/10/28 04:24:26;;;;;;;16.52;13.80;;;13.30;99.90;;;;;;5035113;28;20028;-53
2022/10/28 04:26:52;;;;;;;17.05;13.10;;;13.30;99.90;;;;;;5029429;28;20425;-51
2022/10/28 04:29:18;;;;;;;19.30;12.60;;;13.30;99.90;;;;;;5025893;28;20038;-53
2022/10/28 04:31:44;;;;;;;16.55;12.80;;;13.20;99.90;;;;;;5027945;28;20025;-50
2022/10/28 04:34:09;;;;;;;17.27;13.18;;;13.30;99.90;;;;;;5012065;28;20080;-53
2022/10/28 04:36:35;;;;;;;18.88;12.45;;;13.30;99.90;;;;;;5025778;28;20017;-50
2022/10/28 04:39:01;;;;;;;19.85;12.27;;;13.20;99.90;;;;;;5028132;28;20037;-50
2022/10/28 04:41:26;;;;;;;19.48;12.35;;;13.20;99.90;;;;;;5006348;28;20045;-52
2022/10/28 04:43:54;;;;;;;19.25;12.75;;;13.10;99.90;;;;;;5025830;28;20063;-50
2022/10/28 04:46:20;;;;;;;22.52;13.98;;;13.10;99.90;;;;;;5029357;28;20037;-50
2022/10/28 04:48:47;;;;;;;19.45;12.30;;;13.10;99.90;;;;;;5011881;28;20045;-51
2022/10/28 04:51:13;;;;;;;17.70;12.57;;;13.10;99.90;;;;;;5031061;28;20369;-50
2022/10/28 04:53:39;;;;;;;16.60;11.98;;;13.10;99.90;;;;;;5028496;28;20172;-53
2022/10/28 04:56:05;;;;;;;19.13;12.35;;;13.10;99.90;;;;;;5028981;28;20116;-52
2022/10/28 04:58:30;;;;;;;25.85;12.52;;;13.10;99.90;;;;;;5044567;28;20053;-51
2022/10/28 05:00:56;;;;;;;24.83;13.77;;;13.10;99.90;;;;;;5030300;28;20108;-52
2022/10/28 05:03:22;;;;;;;23.10;14.82;;;13.10;99.90;;;;;;5028497;28;20052;-51
2022/10/28 05:05:47;;;;;;;19.98;13.50;;;13.10;99.90;;;;;;4998425;28;20083;-50
2022/10/28 05:08:13;;;;;;;21.20;13.73;;;13.20;99.90;;;;;;5010320;28;20121;-50
2022/10/28 05:10:39;;;;;;;24.10;14.43;;;13.20;99.90;;;;;;5026182;28;20033;-52
2022/10/28 05:13:05;;;;;;;29.30;14.50;;;13.20;99.90;;;;;;5025167;28;20034;-53
2022/10/28 05:15:31;;;;;;;19.60;12.80;;;13.10;99.90;;;;;;5023116;28;20036;-49
2022/10/28 05:17:56;;;;;;;44.00;25.65;;;13.20;99.90;;;;;;5032760;28;20040;-52
2022/10/28 05:20:22;;;;;;;34.75;22.33;;;13.00;99.90;;;;;;5048457;28;20399;-50
2022/10/28 05:22:51;;;;;;;42.47;29.73;;;12.70;99.90;;;;;;5047380;28;20040;-49
2022/10/28 05:25:17;;;;;;;40.60;29.00;;;12.50;99.90;;;;;;5043879;28;20079;-51
2022/10/28 05:27:43;;;;;;;41.05;29.33;;;12.40;99.90;;;;;;5047856;28;20128;-52
2022/10/28 05:30:09;;;;;;;27.80;20.67;;;12.50;99.90;;;;;;5036446;28;20115;-50
2022/10/28 05:32:35;;;;;;;21.85;17.40;;;12.50;99.90;;;;;;5050930;28;20041;-53
2022/10/28 05:35:01;;;;;;;20.05;16.23;;;12.50;99.90;;;;;;5019593;28;20033;-53
2022/10/28 05:37:27;;;;;;;21.50;16.80;;;12.60;99.90;;;;;;5046185;28;20151;-50
2022/10/28 05:39:53;;;;;;;21.15;17.55;;;12.70;99.90;;;;;;5070725;28;20118;-52
2022/10/28 05:42:19;;;;;;;27.02;18.25;;;12.70;99.90;;;;;;5069031;28;20029;-52
2022/10/28 05:44:44;;;;;;;23.13;18.80;;;12.60;99.90;;;;;;5069295;28;20515;-53
2022/10/28 05:47:10;;;;;;;24.67;16.92;;;12.50;99.90;;;;;;5064499;28;20075;-50
2022/10/28 05:49:36;;;;;;;26.60;23.80;;;12.90;99.90;;;;;;5054068;28;20476;-49
2022/10/28 05:52:02;;;;;;;25.05;19.08;;;13.50;99.90;;;;;;5021221;28;20048;-51
2022/10/28 05:54:27;;;;;;;20.65;15.70;;;14.10;99.90;;;;;;5033580;28;20045;-52
2022/10/28 05:56:53;;;;;;;18.63;14.32;;;14.70;99.90;;;;;;5069612;28;20028;-51
2022/10/28 05:59:19;;;;;;;21.85;14.50;;;;;;;;;;5053989;28;20090;-50
2022/10/28 06:01:45;;;;;;;19.30;15.32;;;16.40;99.90;;;;;;5064139;28;20032;-52
2022/10/28 06:04:11;;;;;;;20.35;13.43;;;17.40;99.90;;;;;;5055922;28;20107;-53
2022/10/28 06:06:36;;;;;;;23.33;14.43;;;18.30;99.90;;;;;;5068743;28;20070;-50
2022/10/28 06:09:03;;;;;;;17.45;13.93;;;;;;;;;;5066918;28;20044;-54
2022/10/28 06:11:28;;;;;;;19.58;13.80;;;19.40;99.90;;;;;;5039203;28;20052;-50
2022/10/28 06:13:54;;;;;;;14.45;12.43;;;;;;;;;;5044860;28;20045;-50
2022/10/28 06:16:20;;;;;;;22.98;15.43;;;;;;;;;;5042552;28;20124;-49
2022/10/28 06:18:46;;;;;;;20.30;15.25;;;20.30;99.90;;;;;;5000896;28;20124;-51
2022/10/28 06:21:12;;;;;;;22.23;15.48;;;;;;;;;;5045668;28;20551;-52
2022/10/28 06:23:38;;;;;;;25.40;16.42;;;22.80;99.90;;;;;;5048201;28;20439;-52
2022/10/28 06:26:04;;;;;;;20.00;14.85;;;24.20;99.90;;;;;;5044636;28;20028;-48
2022/10/28 06:28:30;;;;;;;22.30;15.15;;;24.30;99.90;;;;;;5047242;28;20112;-50
2022/10/28 06:31:04;;;;;;;25.35;14.70;;;25.00;99.90;;;;;;5044261;28;20575;-51
2022/10/28 06:33:32;;;;;;;22.08;14.63;;;25.70;99.90;;;;;;5050769;28;20052;-51
2022/10/28 06:35:58;;;;;;;22.00;15.98;;;26.20;98.80;;;;;;5047859;28;20491;-48
2022/10/28 06:38:28;;;;;;;26.88;16.10;;;26.60;99.90;;;;;;5044569;28;20500;-48
2022/10/28 06:40:57;;;;;;;23.17;15.82;;;27.00;99.80;;;;;;5032619;28;20431;-52
2022/10/28 06:43:23;;;;;;;28.95;17.05;;;27.60;99.90;;;;;;5049759;28;20563;-51
2022/10/28 06:45:53;;;;;;;36.22;19.90;;;27.70;99.70;;;;;;5052325;28;20120;-52
2022/10/28 06:48:19;;;;;;;29.17;18.77;;;27.80;99.90;;;;;;5052508;28;20044;-50
2022/10/28 06:50:45;;;;;;;26.42;16.13;;;28.00;99.90;;;;;;5031771;28;20041;-48
2022/10/28 06:53:11;;;;;;;30.13;17.33;;;;;;;;;;5051377;28;20479;-51
2022/10/28 06:55:37;;;;;;;27.98;18.55;;;28.10;99.90;;;;;;5052491;28;20411;-49
2022/10/28 06:58:03;;;;;;;29.60;18.13;;;;;;;;;;5051558;28;20032;-49
2022/10/28 07:00:30;;;;;;;23.30;15.85;;;;;;;;;;5052066;28;20048;-49
2022/10/28 07:02:56;;;;;;;24.42;14.82;;;29.50;99.90;;;;;;5036681;28;20021;-49
2022/10/28 07:05:24;;;;;;;18.80;13.93;;;30.30;96.90;;;;;;5047631;28;20036;-50
2022/10/28 07:07:50;;;;;;;20.55;14.07;;;30.00;91.60;;;;;;5049941;28;20060;-49
2022/10/28 07:10:15;;;;;;;21.90;14.88;;;30.40;91.10;;;;;;5050871;28;20049;-48
2022/10/28 07:12:41;;;;;;;22.90;14.13;;;30.40;99.90;;;;;;5051318;28;20033;-49
2022/10/28 07:15:07;;;;;;;15.93;12.77;;;;;;;;;;5050294;28;20388;-49
2022/10/28 07:17:33;;;;;;;16.63;11.32;;;;;;;;;;5070308;28;20036;-49
2022/10/28 07:19:59;;;;;;;17.40;11.70;;;31.20;94.90;;;;;;5047899;28;20128;-49
2022/10/28 07:22:25;;;;;;;14.25;11.05;;;;;;;;;;5045282;28;20124;-50
2022/10/28 07:24:51;;;;;;;19.27;12.73;;;;;;;;;;5046486;28;20022;-49
2022/10/28 07:27:17;;;;;;;19.77;12.07;;;;;;;;;;5037748;28;20050;-50
2022/10/28 07:29:43;;;;;;;16.50;12.15;;;32.00;94.90;;;;;;5046804;28;20037;-46
2022/10/28 07:32:09;;;;;;;18.25;12.57;;;32.20;88.60;;;;;;5047726;28;20393;-48
2022/10/28 07:34:35;;;;;;;18.48;13.13;;;31.90;87.30;;;;;;5049638;28;20025;-49
2022/10/28 07:37:00;;;;;;;14.25;11.93;;;31.90;87.50;;;;;;5047360;28;20025;-50
2022/10/28 07:39:26;;;;;;;18.13;12.88;;;31.40;88.20;;;;;;5050265;28;20033;-49
2022/10/28 07:41:52;;;;;;;18.77;12.60;;;31.30;86.60;;;;;;5047612;28;20033;-51
2022/10/28 07:44:17;;;;;;;15.65;13.05;;;31.20;87.50;;;;;;5048533;28;20128;-49
2022/10/28 07:46:43;;;;;;;17.90;12.90;;;31.20;87.00;;;;;;5047903;28;20475;-49
2022/10/28 07:49:09;;;;;;;22.65;14.75;;;31.60;86.50;;;;;;5007303;28;20045;-47
2022/10/28 07:51:34;;;;;;;18.38;14.05;;;31.60;87.20;;;;;;5022442;28;20555;-50
2022/10/28 07:54:01;;;;;;;15.82;14.20;;;;;;;;;;5018798;28;20053;-50
2022/10/28 07:56:27;;;;;;;15.98;14.27;;;;;;;;;;5027161;28;20041;-48
2022/10/28 07:58:52;;;;;;;20.55;14.93;;;32.30;86.80;;;;;;5025730;28;20087;-53
2022/10/28 08:01:20;;;;;;;17.95;14.70;;;32.00;85.60;;;;;;5011090;28;20045;-48
2022/10/28 08:03:48;;;;;;;17.83;13.88;;;32.20;86.00;;;;;;5029621;28;20041;-49
2022/10/28 08:06:18;;;;;;;19.75;14.45;;;31.70;85.60;;;;;;5031240;28;20034;-49
2022/10/28 08:08:45;;;;;;;20.05;17.77;;;31.40;85.60;;;;;;5030149;28;20544;-48
2022/10/28 08:11:13;;;;;;;18.63;15.80;;;30.80;85.80;;;;;;5029056;28;20034;-48
2022/10/28 08:13:39;;;;;;;23.00;19.00;;;31.10;86.60;;;;;;5030861;28;20034;-49
2022/10/28 08:16:05;;;;;;;21.88;17.35;;;31.10;85.90;;;;;;5026360;28;20366;-49
2022/10/28 08:18:31;;;;;;;32.97;19.23;;;30.50;86.70;;;;;;5009900;28;20057;-49
2022/10/28 08:21:01;;;;;;;24.08;21.20;;;30.90;86.50;;;;;;5026620;28;20030;-50
2022/10/28 08:23:28;;;;;;;25.50;22.17;;;30.40;86.70;;;;;;5026089;28;20029;-49
2022/10/28 08:25:54;;;;;;;25.85;21.52;;;31.00;86.80;;;;;;5024583;28;20392;-49
2022/10/28 08:28:20;;;;;;;35.15;25.75;;;31.10;86.40;;;;;;5023935;28;20034;-49
2022/10/28 08:30:46;;;;;;;30.83;24.88;;;;;;;;;;5026619;28;20032;-50
2022/10/28 08:33:13;;;;;;;28.10;24.67;;;31.70;85.20;;;;;;5025488;28;20060;-49
2022/10/28 08:35:38;;;;;;;30.60;27.30;;;31.50;85.10;;;;;;5014704;28;20036;-49
2022/10/28 08:38:05;;;;;;;30.80;26.58;;;31.70;85.00;;;;;;5029292;28;20013;-49
2022/10/28 08:41:01;;;;;;;32.17;25.92;;;31.60;84.70;;;;;;5029580;28;20113;-49
2022/10/28 08:43:52;;;;;;;28.67;25.38;;;31.50;85.00;;;;;;5014279;28;20095;-48
2022/10/28 08:47:10;;;;;;;35.78;27.35;;;31.10;84.90;;;;;;5038170;28;20041;-50
2022/10/28 08:49:39;;;;;;;31.42;25.60;;;31.40;85.60;;;;;;5010881;28;20473;-48
2022/10/28 08:52:28;;;;;;;30.42;26.30;;;31.40;84.50;;;;;;5012524;28;20109;-49
2022/10/28 08:55:00;;;;;;;29.15;25.35;;;31.90;85.00;;;;;;5010956;28;20033;-50
2022/10/28 08:57:51;;;;;;;36.10;28.92;;;31.70;84.50;;;;;;5007932;28;20053;-49
2022/10/28 09:00:21;;;;;;;35.42;30.67;;;31.40;84.60;;;;;;5010704;28;20058;-49
2022/10/28 09:03:16;;;;;;;41.83;32.08;;;31.90;85.10;;;;;;5008570;28;20427;-50
2022/10/28 09:05:46;;;;;;;36.92;31.42;;;31.90;84.20;;;;;;4965844;28;20124;-49
2022/10/28 09:08:27;;;;;;;32.35;28.75;;;;;;;;;;5012769;28;20038;-49
2022/10/28 09:11:07;;;;;;;40.90;27.67;;;31.50;93.80;;;;;;5018474;28;20032;-49
2022/10/28 09:13:48;;;;;;;32.53;28.63;;;31.50;84.60;;;;;;5010937;28;20369;-49
2022/10/28 09:16:22;;;;;;;31.58;26.88;;;31.60;84.80;;;;;;5018877;28;20484;-50
2022/10/28 09:18:53;;;;;;;29.13;23.77;;;31.70;84.30;;;;;;5012570;28;20050;-49
2022/10/28 09:21:34;;;;;;;34.17;24.65;;;31.90;84.50;;;;;;5026691;28;20045;-50
2022/10/28 09:24:19;;;;;;;31.63;23.90;;;32.10;84.40;;;;;;5031838;28;20038;-49
2022/10/28 09:26:50;;;;;;;35.08;24.95;;;32.30;83.90;;;;;;5037226;28;20057;-49
2022/10/28 09:29:34;;;;;;;40.55;25.10;;;32.10;84.10;;;;;;5034707;28;20096;-50
2022/10/28 09:32:11;;;;;;;33.00;27.10;;;32.10;83.60;;;;;;5032274;28;20029;-49
2022/10/28 09:34:48;;;;;;;35.60;25.05;;;31.60;84.40;;;;;;5034082;28;20025;-50
2022/10/28 09:37:21;;;;;;;38.30;26.27;;;31.80;84.60;;;;;;5035329;28;20106;-50
2022/10/28 09:39:51;;;;;;;32.70;25.85;;;31.80;84.00;;;;;;5014792;28;20033;-49
2022/10/28 09:42:53;;;;;;;37.85;25.70;;;32.10;83.90;;;;;;5034048;28;20470;-48
2022/10/28 09:45:24;;;;;;;27.05;22.85;;;32.20;83.30;;;;;;5035039;28;20030;-49
2022/10/28 09:47:59;;;;;;;29.48;24.20;;;32.40;83.30;;;;;;5036768;28;20498;-48
2022/10/28 09:50:28;;;;;;;34.40;25.67;;;32.10;82.90;;;;;;5034419;28;20373;-48
2022/10/28 09:53:28;;;;;;;30.63;24.00;;;32.20;82.80;;;;;;5036168;28;20034;-50
2022/10/28 09:55:55;;;;;;;29.55;23.42;;;;;;;;;;5015815;28;20060;-49
2022/10/28 09:58:21;;;;;;;25.17;22.50;;;;;;;;;;5013679;28;20491;-49
2022/10/28 10:00:48;;;;;;;28.08;23.27;;;33.10;82.40;;;;;;5032187;28;20035;-49
2022/10/28 10:03:15;;;;;;;25.15;20.98;;;33.10;82.60;;;;;;5031368;28;20032;-49
2022/10/28 10:05:46;;;;;;;26.73;21.67;;;32.90;82.30;;;;;;5035237;28;20029;-49
2022/10/28 10:08:15;;;;;;;22.90;20.55;;;32.70;82.30;;;;;;5033418;28;20049;-48
2022/10/28 10:10:59;;;;;;;26.10;20.48;;;33.10;83.30;;;;;;5032718;28;20118;-48
2022/10/28 10:13:33;;;;;;;23.23;20.73;;;33.20;82.00;;;;;;5046766;28;20401;-48
2022/10/28 10:16:05;;;;;;;22.65;20.27;;;32.70;82.20;;;;;;5046991;28;20039;-48
2022/10/28 10:18:32;;;;;;;24.02;20.13;;;33.00;82.50;;;;;;5056996;28;20052;-49
2022/10/28 10:20:58;;;;;;;21.75;19.52;;;32.50;83.90;;;;;;5061280;28;20103;-49
2022/10/28 10:23:30;;;;;;;26.90;21.88;;;32.70;82.50;;;;;;5066949;28;20042;-49
2022/10/28 10:26:05;;;;;;;25.83;19.45;;;32.20;83.20;;;;;;5068980;28;20519;-48
2022/10/28 10:28:32;;;;;;;24.30;20.50;;;32.30;83.50;;;;;;5064622;28;20108;-49
2022/10/28 10:31:04;;;;;;;22.48;20.08;;;33.00;83.50;;;;;;5063604;28;20090;-49
2022/10/28 10:33:37;;;;;;;25.63;19.88;;;32.80;82.50;;;;;;5065997;28;20045;-49
2022/10/28 10:36:08;;;;;;;23.17;20.33;;;32.90;82.90;;;;;;5064605;28;20029;-49
2022/10/28 10:38:34;;;;;;;;;;;33.20;83.30;;;;;;5069735;28;20052;-49
2022/10/28 10:41:00;;;;;;;19.77;16.33;;;33.00;82.50;;;;;;5065743;28;20410;-48
2022/10/28 10:43:30;;;;;;;24.30;17.48;;;33.20;82.10;;;;;;5063498;28;20036;-48
2022/10/28 10:46:05;;;;;;;19.23;17.15;;;33.00;82.50;;;;;;5024026;28;20104;-50
2022/10/28 10:48:34;;;;;;;19.13;16.95;;;;;;;;;;5031090;28;20035;-48
2022/10/28 10:51:22;;;;;;;19.17;16.42;;;32.30;91.90;;;;;;5028834;28;21581;-48
2022/10/28 10:53:50;;;;;;;17.88;16.02;;;32.70;92.60;;;;;;5029304;28;20038;-48
2022/10/28 10:56:25;;;;;;;20.33;16.08;;;32.60;93.00;;;;;;5030122;28;20025;-48
2022/10/28 10:58:53;;;;;;;21.67;17.42;;;32.00;82.60;;;;;;5023651;28;20083;-48
2022/10/28 11:01:25;;;;;;;18.55;16.55;;;32.60;93.30;;;;;;5030209;28;20032;-48
2022/10/28 11:03:59;;;;;;;18.58;15.88;;;32.90;92.60;;;;;;5030371;28;20376;-49
2022/10/28 11:06:36;;;;;;;19.20;15.10;;;32.30;98.70;;;;;;5031316;28;20480;-48
2022/10/28 11:09:18;;;;;;;20.20;16.50;;;32.60;96.10;;;;;;5025101;28;20026;-48
2022/10/28 11:11:45;;;;;;;20.25;16.17;;;;;;;;;;5029197;28;20370;-49
2022/10/28 11:14:14;;;;;;;20.13;15.40;;;;;;;;;;5031845;28;20125;-48
2022/10/28 11:16:52;;;;;;;18.70;14.48;;;31.30;94.30;;;;;;5030409;28;20067;-48
2022/10/28 11:19:31;;;;;;;19.02;15.25;;;31.10;81.90;;;;;;5039801;28;20099;-49
2022/10/28 11:22:12;;;;;;;18.73;15.20;;;31.70;82.20;;;;;;5049898;28;20025;-48
2022/10/28 11:25:15;;;;;;;23.23;16.05;;;32.10;83.20;;;;;;5051455;28;20037;-49
2022/10/28 11:27:49;;;;;;;22.02;16.40;;;32.30;83.80;;;;;;5051800;28;20036;-48
2022/10/28 11:30:20;;;;;;;20.80;17.05;;;31.50;82.90;;;;;;5020707;28;20486;-48
2022/10/28 11:33:08;;;;;;;19.67;15.15;;;30.90;83.90;;;;;;5049906;28;20043;-48
2022/10/28 11:35:40;;;;;;;19.55;15.40;;;;;;;;;;5045756;28;20052;-49
2022/10/28 11:38:11;;;;;;;22.70;14.13;;;29.80;99.90;;;;;;5050153;28;20388;-48
2022/10/28 11:40:58;;;;;;;19.58;14.68;;;30.40;84.40;;;;;;5047355;28;20022;-48
2022/10/28 11:43:35;;;;;;;16.10;14.20;;;30.60;84.40;;;;;;5046025;28;20419;-48
2022/10/28 11:46:13;;;;;;;17.92;13.82;;;30.60;86.00;;;;;;5043978;28;20400;-48
2022/10/28 11:48:55;;;;;;;21.58;13.82;;;30.30;85.30;;;;;;5047927;28;20427;-49
2022/10/28 11:51:20;;;;;;;;;;;30.40;86.10;;;;;;5044439;28;20037;-48
2022/10/28 11:53:57;;;;;;;28.55;22.25;;;30.60;85.90;;;;;;5049831;28;19919;-49
2022/10/28 11:56:27;;;;;;;28.83;21.23;;;;;;;;;;5002400;28;20033;-48
2022/10/28 11:59:01;;;;;;;36.08;24.15;;;30.20;90.50;;;;;;5065626;28;20073;-48
2022/10/28 12:01:54;;;;;;;22.77;14.82;;;30.40;86.60;;;;;;5028885;28;20044;-48
2022/10/28 12:04:27;;;;;;;18.15;12.60;;;29.80;90.20;;;;;;5047509;28;20048;-48
2022/10/28 12:07:19;;;;;;;23.30;16.30;;;;;;;;;;5052164;28;20372;-48
2022/10/28 12:10:34;;;;;;;18.58;13.00;;;29.30;86.10;;;;;;5047619;28;20043;-48
2022/10/28 12:13:19;;;;;;;17.50;11.93;;;29.70;87.30;;;;;;4993070;28;20053;-47
2022/10/28 12:16:14;;;;;;;17.40;13.35;;;29.40;87.30;;;;;;5025488;28;20018;-48
2022/10/28 12:19:03;;;;;;;15.55;10.68;;;;;;;;;;5026533;28;20556;-49
2022/10/28 12:21:33;;;;;;;32.22;23.92;;;29.40;87.00;;;;;;4970702;28;20053;-48
2022/10/28 12:24:02;;;;;;;12.50;10.55;;;29.00;87.60;;;;;;4948623;28;20039;-48
2022/10/28 12:26:55;;;;;;;15.02;11.10;;;28.40;88.20;;;;;;4944530;28;20488;-48
2022/10/28 12:29:26;;;;;;;15.05;9.55;;;28.50;88.40;;;;;;4949526;28;20414;-48
2022/10/28 12:32:09;;;;;;;27.05;11.68;;;28.90;89.50;;;;;;4935424;28;20142;-49
2022/10/28 12:34:41;;;;;;;15.70;9.02;;;;;;;;;;4947829;28;20135;-48
2022/10/28 12:37:35;;;;;;;15.95;8.60;;;28.00;99.90;;;;;;4952133;28;20053;-48
2022/10/28 12:40:16;;;;;;;49.30;11.10;;;28.10;90.10;;;;;;4954558;28;20057;-49
2022/10/28 12:42:49;;;;;;;22.98;9.77;;;28.60;90.60;;;;;;4964053;28;20081;-48
2022/10/28 12:45:18;;;;;;;19.10;8.85;;;28.20;90.10;;;;;;4951548;28;20039;-47
2022/10/28 12:47:57;;;;;;;29.20;9.52;;;27.80;89.30;;;;;;4951534;28;20059;-48
2022/10/28 12:50:52;;;;;;;11.57;7.90;;;27.80;89.80;;;;;;4939896;28;20126;-48
2022/10/28 12:53:35;;;;;;;11.27;7.40;;;27.90;89.40;;;;;;4931796;29;20053;-48
2022/10/28 12:56:02;;;;;;;12.27;7.55;;;;;;;;;;4951434;28;20398;-48
2022/10/28 12:58:46;;;;;;;10.77;7.20;;;27.60;89.80;;;;;;4999695;28;20389;-48
2022/10/28 13:01:18;;;;;;;9.90;7.55;;;27.50;90.00;;;;;;5051148;28;20024;-47
2022/10/28 13:03:44;;;;;;;10.00;7.10;;;;;;;;;;5049601;28;20029;-48
2022/10/28 13:06:28;;;;;;;9.95;7.20;;;27.70;99.90;;;;;;5050445;28;20499;-48
2022/10/28 13:09:24;;;;;;;14.15;6.65;;;28.00;99.20;;;;;;5050864;28;20111;-48
2022/10/28 13:12:17;;;;;;;13.25;6.70;;;27.40;90.10;;;;;;5053745;28;20048;-48
2022/10/28 13:15:13;;;;;;;9.00;6.25;;;27.60;90.30;;;;;;5052977;28;20534;-48
2022/10/28 13:18:07;;;;;;;8.20;6.03;;;;;;;;;;5051909;28;20037;-48
2022/10/28 13:20:47;;;;;;;8.90;5.70;;;27.10;90.10;;;;;;5046941;28;20042;-49
2022/10/28 13:23:32;;;;;;;11.23;5.95;;;;;;;;;;5028367;28;20038;-48
2022/10/28 13:26:03;;;;;;;8.32;5.93;;;;;;;;;;5029970;28;20381;-49
2022/10/28 13:28:35;;;;;;;10.52;6.50;;;26.70;90.80;;;;;;5027542;28;20044;-49
2022/10/28 13:31:03;;;;;;;10.48;6.90;;;;;;;;;;5030537;28;20033;-47
2022/10/28 13:33:30;;;;;;;10.60;6.32;;;26.70;91.20;;;;;;5031779;28;20389;-48
2022/10/28 13:36:10;;;;;;;9.75;6.05;;;26.60;95.40;;;;;;5029306;28;20026;-48
2022/10/28 13:38:37;;;;;;;9.88;6.57;;;26.50;99.90;;;;;;5026724;28;20030;-48
2022/10/28 13:41:07;;;;;;;7.88;5.47;;;26.60;93.80;;;;;;5031518;28;20028;-48
2022/10/28 13:43:48;;;;;;;10.20;5.47;;;26.30;91.00;;;;;;5030571;28;20059;-48
2022/10/28 13:46:51;;;;;;;8.18;5.30;;;26.30;91.00;;;;;;5034308;28;20091;-49
2022/10/28 13:49:31;;;;;;;6.40;4.82;;;26.30;91.10;;;;;;5032444;28;20021;-49
2022/10/28 13:52:05;;;;;;;7.63;5.00;;;26.20;91.00;;;;;;5032172;28;20041;-49
2022/10/28 13:54:42;;;;;;;10.23;5.15;;;26.30;90.80;;;;;;5032546;28;20041;-49
2022/10/28 13:57:36;;;;;;;8.82;5.30;;;26.40;91.00;;;;;;5032943;28;20463;-48
2022/10/28 14:00:11;;;;;;;7.50;5.72;;;26.30;91.10;;;;;;5027088;28;20033;-49
2022/10/28 14:02:40;;;;;;;9.32;5.90;;;26.20;91.20;;;;;;5032686;28;20451;-49
2022/10/28 14:05:08;;;;;;;8.27;5.80;;;26.40;91.20;;;;;;5029083;28;20465;-49
2022/10/28 14:07:37;;;;;;;8.45;5.28;;;26.20;91.20;;;;;;5029076;28;20500;-47
2022/10/28 14:10:21;;;;;;;8.43;5.85;;;;;;;;;;5028476;28;20060;-50
2022/10/28 14:12:54;;;;;;;12.88;6.95;;;26.30;91.30;;;;;;5029918;28;20456;-49
2022/10/28 14:15:27;;;;;;;12.18;6.68;;;26.30;91.50;;;;;;5031966;28;20029;-48
2022/10/28 14:18:01;;;;;;;11.98;6.88;;;26.30;91.50;;;;;;5013468;28;20041;-50
2022/10/28 14:20:50;;;;;;;9.30;6.78;;;26.10;91.70;;;;;;5046670;28;20079;-47
2022/10/28 14:23:21;;;;;;;11.43;7.47;;;;;;;;;;4990985;28;20118;-48
2022/10/28 14:25:47;;;;;;;;;;;25.50;91.90;;;;;;5008286;28;20042;-48
2022/10/28 14:33:35;;;;;;;15.98;7.85;;;25.40;92.60;;;;;;5009251;28;20113;-48
2022/10/28 14:36:19;;;;;;;10.02;6.40;;;25.40;92.60;;;;;;5011921;28;20120;-48
2022/10/28 14:39:03;;;;;;;9.07;6.20;;;25.20;92.60;;;;;;4992674;28;20100;-47
2022/10/28 14:41:57;;;;;;;10.05;6.57;;;25.10;92.70;;;;;;5004975;28;20058;-48
2022/10/28 14:44:32;;;;;;;12.55;6.40;;;25.10;92.80;;;;;;5000654;28;20157;-48
2022/10/28 14:47:31;;;;;;;9.98;6.55;;;25.00;93.00;;;;;;5008808;28;20045;-47
2022/10/28 14:50:04;;;;;;;10.93;6.60;;;24.80;93.20;;;;;;5006103;28;20513;-47
2022/10/28 14:52:34;;;;;;;9.38;6.53;;;24.70;93.50;;;;;;5007869;28;20132;-50
2022/10/28 14:55:12;;;;;;;13.13;6.57;;;24.60;93.80;;;;;;4991395;28;20038;-49
2022/10/28 14:57:38;;;;;;;13.02;7.15;;;24.40;93.90;;;;;;5010605;28;20045;-49
2022/10/28 15:00:07;;;;;;;11.48;7.15;;;24.20;94.20;;;;;;5019063;28;20049;-48
2022/10/28 15:02:33;;;;;;;9.50;7.25;;;;;;;;;;5061762;28;20099;-50
2022/10/28 15:05:11;;;;;;;13.82;6.70;;;23.90;94.70;;;;;;5045718;28;20033;-50
2022/10/28 15:07:37;;;;;;;10.27;6.68;;;23.70;96.40;;;;;;5033294;28;20527;-50
2022/10/28 15:10:24;;;;;;;11.05;7.38;;;;;;;;;;5051305;28;20025;-49
2022/10/28 15:12:50;;;;;;;13.35;7.63;;;;;;;;;;5031187;28;20056;-50
2022/10/28 15:15:19;;;;;;;14.55;7.80;;;23.10;95.80;;;;;;5044459;28;20048;-49
2022/10/28 15:17:46;;;;;;;16.45;8.73;;;23.00;96.20;;;;;;5048845;28;20131;-50
2022/10/28 15:20:18;;;;;;;20.10;13.30;;;22.80;96.50;;;;;;5028710;28;20575;-48
2022/10/28 15:22:45;;;;;;;27.45;21.52;;;22.80;96.50;;;;;;5026453;28;20037;-49
2022/10/28 15:25:15;;;;;;;24.85;15.93;;;22.70;96.70;;;;;;5027154;28;20030;-49
2022/10/28 15:27:43;;;;;;;19.33;10.23;;;22.50;97.20;;;;;;5029841;28;20083;-48
2022/10/28 15:30:15;;;;;;;16.02;9.27;;;22.40;97.60;;;;;;5030623;28;20108;-48
2022/10/28 15:32:41;;;;;;;16.55;10.25;;;22.10;98.30;;;;;;5027820;28;20684;-49
2022/10/28 15:35:26;;;;;;;45.05;28.23;;;22.00;98.70;;;;;;5029183;28;20122;-49
2022/10/28 15:37:53;;;;;;;139.25;59.17;;;21.90;99.00;;;;;;5029709;28;20037;-48
2022/10/28 15:40:26;;;;;;;70.95;52.28;;;21.80;99.30;;;;;;5010062;28;20049;-50
2022/10/28 15:43:15;;;;;;;46.00;40.13;;;21.60;99.80;;;;;;5043226;28;20037;-48
2022/10/28 15:45:41;;;;;;;28.08;19.13;;;21.50;99.90;;;;;;5029481;28;20507;-50
2022/10/28 15:48:13;;;;;;;32.78;14.50;;;21.50;99.90;;;;;;5027101;28;20033;-48
2022/10/28 15:50:39;;;;;;;20.55;10.90;;;21.30;99.90;;;;;;5028171;28;20026;-48
2022/10/28 15:53:11;;;;;;;34.25;11.88;;;21.10;99.90;;;;;;5024038;28;20065;-49
2022/10/28 15:55:38;;;;;;;21.75;12.65;;;21.00;99.90;;;;;;5027033;28;20056;-48
2022/10/28 15:58:09;;;;;;;23.42;12.50;;;21.00;99.90;;;;;;5025895;28;20022;-50
2022/10/28 16:00:49;;;;;;;19.73;13.98;;;20.90;99.90;;;;;;5027792;28;20151;-50
2022/10/28 16:03:39;;;;;;;24.83;14.55;;;20.80;99.90;;;;;;5024514;28;20082;-48
2022/10/28 16:06:18;;;;;;;21.00;12.65;;;20.70;99.90;;;;;;5028817;28;20036;-48
2022/10/28 16:08:44;;;;;;;26.20;14.07;;;20.60;99.90;;;;;;5027295;28;20069;-48
2022/10/28 16:11:17;;;;;;;23.70;13.85;;;20.60;99.90;;;;;;5027338;28;20029;-48
2022/10/28 16:13:48;;;;;;;23.85;14.02;;;20.50;99.90;;;;;;5027061;28;20052;-48
2022/10/28 16:16:28;;;;;;;31.17;16.52;;;;;;;;;;5012267;28;20037;-50
2022/10/28 16:19:05;;;;;;;24.77;16.35;;;20.30;99.90;;;;;;5040493;28;20045;-50
2022/10/28 16:21:31;;;;;;;24.90;17.42;;;20.30;99.90;;;;;;5049399;28;20064;-49
2022/10/28 16:23:58;;;;;;;24.67;16.05;;;20.10;99.90;;;;;;5017455;28;20037;-48
2022/10/28 16:26:25;;;;;;;20.92;14.05;;;20.10;99.90;;;;;;5050252;28;20033;-49
2022/10/28 16:28:51;;;;;;;20.23;15.77;;;20.10;99.90;;;;;;5051065;28;20079;-49
2022/10/28 16:31:18;;;;;;;24.95;16.10;;;20.00;99.90;;;;;;5050588;28;20033;-48